sensor_id;sensor_type;location;lat;lon;timestamp;pressure;altitude;pressure_sealevel;temperature;humidity
9261;BME280;4667;42.726;23.252;2023-05-25T00:00:58;95155.97;;;15.73;nan
9261;BME280;4667;42.726;23.252;2023-05-25T00:03:25;95158.88;;;15.66;nan
9261;BME280;4667;42.726;23.252;2023-05-25T00:05:54;95161.03;;;15.75;nan
9261;BME280;4667;42.726;23.252;2023-05-25T00:08:22;95161.88;;;15.72;nan
9261;BME280;4667;42.726;23.252;2023-05-25T00:10:48;95159.97;;;15.88;nan
9261;BME280;4667;42.726;23.252;2023-05-25T00:13:15;95168.16;;;15.88;nan
9261;BME280;4667;42.726;23.252;2023-05-25T00:15:42;95166.88;;;15.93;nan
9261;BME280;4667;42.726;23.252;2023-05-25T00:18:10;95160.75;;;15.89;nan
9261;BME280;4667;42.726;23.252;2023-05-25T00:20:37;95169.72;;;15.89;nan
9261;BME280;4667;42.726;23.252;2023-05-25T00:23:05;95170.63;;;15.83;nan
9261;BME280;4667;42.726;23.252;2023-05-25T00:25:32;95171.91;;;15.78;nan
9261;BME280;4667;42.726;23.252;2023-05-25T00:27:59;95165.44;;;15.69;nan
9261;BME280;4667;42.726;23.252;2023-05-25T00:30:28;95162.25;;;15.54;nan
9261;BME280;4667;42.726;23.252;2023-05-25T00:32:55;95169.69;;;15.50;nan
9261;BME280;4667;42.726;23.252;2023-05-25T00:35:22;95173.63;;;15.49;nan
9261;BME280;4667;42.726;23.252;2023-05-25T00:37:48;95171.63;;;15.53;nan
9261;BME280;4667;42.726;23.252;2023-05-25T00:40:17;95171.63;;;15.53;nan
9261;BME280;4667;42.726;23.252;2023-05-25T00:42:45;95178.63;;;15.50;nan
9261;BME280;4667;42.726;23.252;2023-05-25T00:45:12;95177.09;;;15.49;nan
9261;BME280;4667;42.726;23.252;2023-05-25T00:47:39;95177.88;;;15.50;nan
9261;BME280;4667;42.726;23.252;2023-05-25T00:50:08;95178.63;;;15.50;nan
9261;BME280;4667;42.726;23.252;2023-05-25T00:52:35;95180.59;;;15.50;nan
9261;BME280;4667;42.726;23.252;2023-05-25T00:55:03;95174.38;;;15.49;nan
9261;BME280;4667;42.726;23.252;2023-05-25T00:57:34;95177.31;;;15.39;nan
9261;BME280;4667;42.726;23.252;2023-05-25T01:00:04;95175.72;;;15.41;nan
9261;BME280;4667;42.726;23.252;2023-05-25T01:02:37;95175.00;;;15.37;nan
9261;BME280;4667;42.726;23.252;2023-05-25T01:05:07;95178.03;;;15.43;nan
9261;BME280;4667;42.726;23.252;2023-05-25T01:07:37;95185.56;;;15.35;nan
9261;BME280;4667;42.726;23.252;2023-05-25T01:10:05;95186.09;;;15.27;nan
9261;BME280;4667;42.726;23.252;2023-05-25T01:12:37;95185.00;;;15.24;nan
9261;BME280;4667;42.726;23.252;2023-05-25T01:15:05;95186.22;;;15.20;nan
9261;BME280;4667;42.726;23.252;2023-05-25T01:17:33;95191.28;;;15.21;nan
9261;BME280;4667;42.726;23.252;2023-05-25T01:20:02;95181.63;;;15.17;nan
9261;BME280;4667;42.726;23.252;2023-05-25T01:22:36;95180.47;;;15.14;nan
9261;BME280;4667;42.726;23.252;2023-05-25T01:25:08;95177.47;;;15.08;nan
9261;BME280;4667;42.726;23.252;2023-05-25T01:27:39;95173.63;;;15.06;nan
9261;BME280;4667;42.726;23.252;2023-05-25T01:30:13;95172.44;;;15.07;nan
9261;BME280;4667;42.726;23.252;2023-05-25T01:32:41;95167.41;;;15.05;nan
9261;BME280;4667;42.726;23.252;2023-05-25T01:35:09;95172.91;;;15.02;nan
9261;BME280;4667;42.726;23.252;2023-05-25T01:37:44;95170.53;;;15.04;nan
9261;BME280;4667;42.726;23.252;2023-05-25T01:40:11;95162.72;;;15.06;nan
9261;BME280;4667;42.726;23.252;2023-05-25T01:42:38;95165.19;;;14.97;nan
9261;BME280;4667;42.726;23.252;2023-05-25T01:45:07;95162.72;;;15.06;nan
9261;BME280;4667;42.726;23.252;2023-05-25T01:47:41;95160.75;;;15.06;nan
9261;BME280;4667;42.726;23.252;2023-05-25T01:50:14;95163.25;;;14.97;nan
9261;BME280;4667;42.726;23.252;2023-05-25T01:52:50;95159.75;;;14.97;nan
9261;BME280;4667;42.726;23.252;2023-05-25T01:55:21;95163.31;;;14.94;nan
9261;BME280;4667;42.726;23.252;2023-05-25T01:57:49;95161.00;;;14.92;nan
9261;BME280;4667;42.726;23.252;2023-05-25T02:00:23;95171.84;;;14.73;nan
9261;BME280;4667;42.726;23.252;2023-05-25T02:02:51;95175.72;;;14.75;nan
9261;BME280;4667;42.726;23.252;2023-05-25T02:05:19;95170.47;;;14.84;nan
9261;BME280;4667;42.726;23.252;2023-05-25T02:07:47;95174.81;;;14.82;nan
9261;BME280;4667;42.726;23.252;2023-05-25T02:10:14;95174.84;;;14.55;nan
9261;BME280;4667;42.726;23.252;2023-05-25T02:12:41;95177.25;;;14.53;nan
9261;BME280;4667;42.726;23.252;2023-05-25T02:15:09;95181.31;;;14.41;nan
9261;BME280;4667;42.726;23.252;2023-05-25T02:17:35;95189.72;;;14.23;nan
9261;BME280;4667;42.726;23.252;2023-05-25T02:20:03;95177.50;;;14.31;nan
9261;BME280;4667;42.726;23.252;2023-05-25T02:22:30;95185.16;;;14.44;nan
9261;BME280;4667;42.726;23.252;2023-05-25T02:24:58;95182.97;;;14.31;nan
9261;BME280;4667;42.726;23.252;2023-05-25T02:27:25;95184.28;;;14.23;nan
9261;BME280;4667;42.726;23.252;2023-05-25T02:29:52;95188.75;;;14.37;nan
9261;BME280;4667;42.726;23.252;2023-05-25T02:32:19;95191.88;;;14.36;nan
9261;BME280;4667;42.726;23.252;2023-05-25T02:34:46;95191.09;;;14.35;nan
9261;BME280;4667;42.726;23.252;2023-05-25T02:37:13;95202.09;;;14.28;nan
9261;BME280;4667;42.726;23.252;2023-05-25T02:39:40;95208.72;;;14.27;nan
9261;BME280;4667;42.726;23.252;2023-05-25T02:42:08;95212.41;;;14.13;nan
9261;BME280;4667;42.726;23.252;2023-05-25T02:44:35;95198.47;;;14.08;nan
9261;BME280;4667;42.726;23.252;2023-05-25T02:47:02;95213.81;;;13.95;nan
9261;BME280;4667;42.726;23.252;2023-05-25T02:49:28;95208.03;;;13.93;nan
9261;BME280;4667;42.726;23.252;2023-05-25T02:51:55;95219.72;;;13.89;nan
9261;BME280;4667;42.726;23.252;2023-05-25T02:54:22;95220.94;;;13.85;nan
9261;BME280;4667;42.726;23.252;2023-05-25T02:56:49;95216.53;;;13.95;nan
9261;BME280;4667;42.726;23.252;2023-05-25T02:59:17;95222.44;;;13.89;nan
9261;BME280;4667;42.726;23.252;2023-05-25T03:01:43;95217.81;;;13.86;nan
9261;BME280;4667;42.726;23.252;2023-05-25T03:04:10;95217.00;;;13.89;nan
9261;BME280;4667;42.726;23.252;2023-05-25T03:06:37;95222.81;;;13.92;nan
9261;BME280;4667;42.726;23.252;2023-05-25T03:09:04;95226.31;;;13.92;nan
9261;BME280;4667;42.726;23.252;2023-05-25T03:11:31;95225.03;;;14.00;nan
9261;BME280;4667;42.726;23.252;2023-05-25T03:13:58;95225.44;;;13.99;nan
9261;BME280;4667;42.726;23.252;2023-05-25T03:16:26;95230.91;;;13.99;nan
9261;BME280;4667;42.726;23.252;2023-05-25T03:18:53;95228.94;;;13.99;nan
9261;BME280;4667;42.726;23.252;2023-05-25T03:21:20;95228.53;;;14.01;nan
9261;BME280;4667;42.726;23.252;2023-05-25T03:23:48;95232.38;;;14.03;nan
9261;BME280;4667;42.726;23.252;2023-05-25T03:26:14;95230.81;;;14.06;nan
9261;BME280;4667;42.726;23.252;2023-05-25T03:28:41;95229.59;;;14.10;nan
9261;BME280;4667;42.726;23.252;2023-05-25T03:31:08;95233.75;;;14.18;nan
9261;BME280;4667;42.726;23.252;2023-05-25T03:33:38;95237.56;;;14.24;nan
9261;BME280;4667;42.726;23.252;2023-05-25T03:36:06;95239.94;;;14.22;nan
9261;BME280;4667;42.726;23.252;2023-05-25T03:38:33;95238.75;;;14.23;nan
9261;BME280;4667;42.726;23.252;2023-05-25T03:40:59;95241.78;;;14.29;nan
9261;BME280;4667;42.726;23.252;2023-05-25T03:43:26;95249.50;;;14.34;nan
9261;BME280;4667;42.726;23.252;2023-05-25T03:45:53;95242.91;;;14.31;nan
9261;BME280;4667;42.726;23.252;2023-05-25T03:48:20;95241.28;;;14.38;nan
9261;BME280;4667;42.726;23.252;2023-05-25T03:50:48;95249.44;;;14.41;nan
9261;BME280;4667;42.726;23.252;2023-05-25T03:53:15;95248.59;;;14.44;nan
9261;BME280;4667;42.726;23.252;2023-05-25T03:55:41;95248.91;;;14.50;nan
9261;BME280;4667;42.726;23.252;2023-05-25T03:58:08;95250.09;;;14.49;nan
9261;BME280;4667;42.726;23.252;2023-05-25T04:00:35;95249.53;;;14.61;nan
9261;BME280;4667;42.726;23.252;2023-05-25T04:03:02;95247.47;;;14.68;nan
9261;BME280;4667;42.726;23.252;2023-05-25T04:05:29;95245.00;;;14.78;nan
9261;BME280;4667;42.726;23.252;2023-05-25T04:07:57;95249.88;;;14.90;nan
9261;BME280;4667;42.726;23.252;2023-05-25T04:10:24;95255.50;;;15.02;nan
9261;BME280;4667;42.726;23.252;2023-05-25T04:12:50;95253.25;;;15.21;nan
9261;BME280;4667;42.726;23.252;2023-05-25T04:15:21;95264.72;;;15.35;nan
9261;BME280;4667;42.726;23.252;2023-05-25T04:17:47;95263.28;;;15.50;nan
9261;BME280;4667;42.726;23.252;2023-05-25T04:20:14;95264.53;;;15.69;nan
9261;BME280;4667;42.726;23.252;2023-05-25T04:22:41;95268.47;;;15.88;nan
9261;BME280;4667;42.726;23.252;2023-05-25T04:25:12;95271.69;;;16.03;nan
9261;BME280;4667;42.726;23.252;2023-05-25T04:27:38;95265.66;;;16.11;nan
9261;BME280;4667;42.726;23.252;2023-05-25T04:30:07;95273.31;;;16.20;nan
9261;BME280;4667;42.726;23.252;2023-05-25T04:32:35;95276.72;;;16.24;nan
9261;BME280;4667;42.726;23.252;2023-05-25T04:35:03;95276.16;;;16.32;nan
9261;BME280;4667;42.726;23.252;2023-05-25T04:37:30;95280.38;;;16.37;nan
9261;BME280;4667;42.726;23.252;2023-05-25T04:39:57;95278.59;;;16.47;nan
9261;BME280;4667;42.726;23.252;2023-05-25T04:42:25;95282.72;;;16.55;nan
9261;BME280;4667;42.726;23.252;2023-05-25T04:44:53;95285.25;;;16.65;nan
9261;BME280;4667;42.726;23.252;2023-05-25T04:47:20;95280.03;;;16.71;nan
9261;BME280;4667;42.726;23.252;2023-05-25T04:49:49;95277.16;;;16.78;nan
9261;BME280;4667;42.726;23.252;2023-05-25T04:52:16;95278.59;;;16.83;nan
9261;BME280;4667;42.726;23.252;2023-05-25T04:54:42;95276.06;;;16.92;nan
9261;BME280;4667;42.726;23.252;2023-05-25T04:57:09;95267.16;;;16.88;nan
9261;BME280;4667;42.726;23.252;2023-05-25T04:59:37;95266.16;;;16.98;nan
9261;BME280;4667;42.726;23.252;2023-05-25T05:02:04;95267.50;;;17.06;nan
9261;BME280;4667;42.726;23.252;2023-05-25T05:04:31;95265.03;;;17.11;nan
9261;BME280;4667;42.726;23.252;2023-05-25T05:06:57;95265.72;;;17.16;nan
9261;BME280;4667;42.726;23.252;2023-05-25T05:09:24;95266.41;;;17.20;nan
9261;BME280;4667;42.726;23.252;2023-05-25T05:11:51;95267.84;;;17.24;nan
9261;BME280;4667;42.726;23.252;2023-05-25T05:14:17;95268.34;;;17.35;nan
9261;BME280;4667;42.726;23.252;2023-05-25T05:16:46;95274.41;;;17.43;nan
9261;BME280;4667;42.726;23.252;2023-05-25T05:19:12;95267.41;;;17.42;nan
9261;BME280;4667;42.726;23.252;2023-05-25T05:21:39;95270.50;;;17.44;nan
9261;BME280;4667;42.726;23.252;2023-05-25T05:24:06;95269.69;;;17.60;nan
9261;BME280;4667;42.726;23.252;2023-05-25T05:26:33;95277.75;;;17.67;nan
9261;BME280;4667;42.726;23.252;2023-05-25T05:28:59;95283.34;;;17.63;nan
9261;BME280;4667;42.726;23.252;2023-05-25T05:31:26;95278.66;;;17.76;nan
9261;BME280;4667;42.726;23.252;2023-05-25T05:33:55;95283.34;;;17.92;nan
9261;BME280;4667;42.726;23.252;2023-05-25T05:36:22;95283.00;;;17.90;nan
9261;BME280;4667;42.726;23.252;2023-05-25T05:38:49;95287.47;;;18.13;nan
9261;BME280;4667;42.726;23.252;2023-05-25T05:41:16;95287.38;;;18.16;nan
9261;BME280;4667;42.726;23.252;2023-05-25T05:43:42;95291.69;;;18.30;nan
9261;BME280;4667;42.726;23.252;2023-05-25T05:46:10;95287.75;;;18.31;nan
9261;BME280;4667;42.726;23.252;2023-05-25T05:48:37;95289.41;;;18.41;nan
9261;BME280;4667;42.726;23.252;2023-05-25T05:51:05;95284.41;;;18.52;nan
9261;BME280;4667;42.726;23.252;2023-05-25T05:53:32;95290.38;;;18.63;nan
9261;BME280;4667;42.726;23.252;2023-05-25T05:55:59;95284.91;;;18.76;nan
9261;BME280;4667;42.726;23.252;2023-05-25T05:58:26;95288.50;;;18.86;nan
9261;BME280;4667;42.726;23.252;2023-05-25T06:00:53;95288.09;;;19.00;nan
9261;BME280;4667;42.726;23.252;2023-05-25T06:03:21;95287.41;;;19.21;nan
9261;BME280;4667;42.726;23.252;2023-05-25T06:05:48;95286.41;;;19.28;nan
9261;BME280;4667;42.726;23.252;2023-05-25T06:08:16;95286.63;;;19.33;nan
9261;BME280;4667;42.726;23.252;2023-05-25T06:10:43;95279.97;;;19.69;nan
9261;BME280;4667;42.726;23.252;2023-05-25T06:13:09;95284.53;;;19.84;nan
9261;BME280;4667;42.726;23.252;2023-05-25T06:15:36;95286.16;;;19.94;nan
9261;BME280;4667;42.726;23.252;2023-05-25T06:18:03;95280.75;;;19.91;nan
9261;BME280;4667;42.726;23.252;2023-05-25T06:20:30;95279.19;;;20.03;nan
9261;BME280;4667;42.726;23.252;2023-05-25T06:23:00;95279.31;;;20.21;nan
9261;BME280;4667;42.726;23.252;2023-05-25T06:25:28;95284.97;;;20.39;nan
9261;BME280;4667;42.726;23.252;2023-05-25T06:27:55;95286.00;;;20.32;nan
9261;BME280;4667;42.726;23.252;2023-05-25T06:30:22;95292.66;;;20.75;nan
9261;BME280;4667;42.726;23.252;2023-05-25T06:32:49;95295.97;;;20.92;nan
9261;BME280;4667;42.726;23.252;2023-05-25T06:35:16;95294.16;;;20.98;nan
9261;BME280;4667;42.726;23.252;2023-05-25T06:37:44;95300.72;;;20.91;nan
9261;BME280;4667;42.726;23.252;2023-05-25T06:40:11;95291.50;;;20.54;nan
9261;BME280;4667;42.726;23.252;2023-05-25T06:42:40;95294.06;;;21.10;nan
9261;BME280;4667;42.726;23.252;2023-05-25T06:45:07;95298.44;;;21.21;nan
9261;BME280;4667;42.726;23.252;2023-05-25T06:47:35;95301.38;;;21.35;nan
9261;BME280;4667;42.726;23.252;2023-05-25T06:50:02;95292.66;;;21.06;nan
9261;BME280;4667;42.726;23.252;2023-05-25T06:52:29;95292.94;;;21.30;nan
9261;BME280;4667;42.726;23.252;2023-05-25T06:54:56;95297.91;;;21.13;nan
9261;BME280;4667;42.726;23.252;2023-05-25T06:57:23;95293.09;;;20.95;nan
9261;BME280;4667;42.726;23.252;2023-05-25T06:59:51;95291.84;;;21.27;nan
9261;BME280;4667;42.726;23.252;2023-05-25T07:02:18;95294.34;;;21.52;nan
9261;BME280;4667;42.726;23.252;2023-05-25T07:04:45;95287.50;;;21.75;nan
9261;BME280;4667;42.726;23.252;2023-05-25T07:07:12;95288.44;;;21.72;nan
9261;BME280;4667;42.726;23.252;2023-05-25T07:09:39;95291.72;;;22.16;nan
9261;BME280;4667;42.726;23.252;2023-05-25T07:12:06;95291.22;;;22.18;nan
9261;BME280;4667;42.726;23.252;2023-05-25T07:14:34;95293.66;;;22.52;nan
9261;BME280;4667;42.726;23.252;2023-05-25T07:17:02;95288.63;;;22.23;nan
9261;BME280;4667;42.726;23.252;2023-05-25T07:19:29;95288.75;;;22.56;nan
9261;BME280;4667;42.726;23.252;2023-05-25T07:21:56;95296.28;;;21.92;nan
9261;BME280;4667;42.726;23.252;2023-05-25T07:24:23;95290.09;;;21.70;nan
9261;BME280;4667;42.726;23.252;2023-05-25T07:26:49;95297.31;;;21.67;nan
9261;BME280;4667;42.726;23.252;2023-05-25T07:29:16;95290.94;;;21.97;nan
9261;BME280;4667;42.726;23.252;2023-05-25T07:31:43;95302.53;;;21.74;nan
9261;BME280;4667;42.726;23.252;2023-05-25T07:34:12;95297.31;;;21.76;nan
9261;BME280;4667;42.726;23.252;2023-05-25T07:36:39;95302.56;;;21.92;nan
9261;BME280;4667;42.726;23.252;2023-05-25T07:39:06;95298.25;;;21.82;nan
9261;BME280;4667;42.726;23.252;2023-05-25T07:41:33;95297.19;;;21.80;nan
9261;BME280;4667;42.726;23.252;2023-05-25T07:44:00;95298.44;;;22.24;nan
9261;BME280;4667;42.726;23.252;2023-05-25T07:46:27;95298.88;;;22.23;nan
9261;BME280;4667;42.726;23.252;2023-05-25T07:48:53;95305.94;;;22.24;nan
9261;BME280;4667;42.726;23.252;2023-05-25T07:51:24;95305.94;;;22.06;nan
9261;BME280;4667;42.726;23.252;2023-05-25T07:53:51;95296.38;;;21.61;nan
9261;BME280;4667;42.726;23.252;2023-05-25T07:56:19;95290.00;;;21.91;nan
9261;BME280;4667;42.726;23.252;2023-05-25T07:58:46;95295.38;;;21.95;nan
9261;BME280;4667;42.726;23.252;2023-05-25T08:01:13;95303.59;;;21.68;nan
9261;BME280;4667;42.726;23.252;2023-05-25T08:03:40;95313.41;;;21.78;nan
9261;BME280;4667;42.726;23.252;2023-05-25T08:06:07;95318.47;;;21.79;nan
9261;BME280;4667;42.726;23.252;2023-05-25T08:08:35;95328.94;;;22.03;nan
9261;BME280;4667;42.726;23.252;2023-05-25T08:11:02;95337.06;;;21.97;nan
9261;BME280;4667;42.726;23.252;2023-05-25T08:13:29;95341.53;;;21.54;nan
9261;BME280;4667;42.726;23.252;2023-05-25T08:15:55;95355.38;;;21.24;nan
9261;BME280;4667;42.726;23.252;2023-05-25T08:18:22;95354.56;;;20.92;nan
9261;BME280;4667;42.726;23.252;2023-05-25T08:20:49;95358.03;;;20.62;nan
9261;BME280;4667;42.726;23.252;2023-05-25T08:23:15;95366.22;;;20.31;nan
9261;BME280;4667;42.726;23.252;2023-05-25T08:25:44;95371.19;;;19.89;nan
9261;BME280;4667;42.726;23.252;2023-05-25T08:28:11;95372.22;;;19.70;nan
9261;BME280;4667;42.726;23.252;2023-05-25T08:30:37;95366.59;;;19.61;nan
9261;BME280;4667;42.726;23.252;2023-05-25T08:33:04;95375.19;;;19.50;nan
9261;BME280;4667;42.726;23.252;2023-05-25T08:35:31;95361.13;;;19.23;nan
9261;BME280;4667;42.726;23.252;2023-05-25T08:37:57;95369.91;;;19.05;nan
9261;BME280;4667;42.726;23.252;2023-05-25T08:40:26;95364.50;;;18.89;nan
9261;BME280;4667;42.726;23.252;2023-05-25T08:42:55;95361.06;;;18.72;nan
9261;BME280;4667;42.726;23.252;2023-05-25T08:45:22;95372.56;;;18.38;nan
9261;BME280;4667;42.726;23.252;2023-05-25T08:47:51;95372.75;;;18.31;nan
9261;BME280;4667;42.726;23.252;2023-05-25T08:50:19;95375.13;;;18.16;nan
9261;BME280;4667;42.726;23.252;2023-05-25T08:52:48;95376.94;;;18.07;nan
9261;BME280;4667;42.726;23.252;2023-05-25T08:55:18;95376.59;;;18.05;nan
9261;BME280;4667;42.726;23.252;2023-05-25T08:57:51;95391.97;;;17.86;nan
9261;BME280;4667;42.726;23.252;2023-05-25T09:00:25;95386.53;;;17.82;nan
9261;BME280;4667;42.726;23.252;2023-05-25T09:02:58;95392.38;;;17.84;nan
9261;BME280;4667;42.726;23.252;2023-05-25T09:05:26;95400.94;;;17.70;nan
9261;BME280;4667;42.726;23.252;2023-05-25T09:07:53;95399.75;;;17.71;nan
9261;BME280;4667;42.726;23.252;2023-05-25T09:10:20;95407.44;;;17.76;nan
9261;BME280;4667;42.726;23.252;2023-05-25T09:12:48;95404.91;;;17.69;nan
9261;BME280;4667;42.726;23.252;2023-05-25T09:15:16;95406.94;;;17.65;nan
9261;BME280;4667;42.726;23.252;2023-05-25T09:17:45;95401.88;;;17.64;nan
9261;BME280;4667;42.726;23.252;2023-05-25T09:20:12;95403.28;;;17.52;nan
9261;BME280;4667;42.726;23.252;2023-05-25T09:22:39;95398.78;;;17.45;nan
9261;BME280;4667;42.726;23.252;2023-05-25T09:25:07;95412.22;;;17.56;nan
9261;BME280;4667;42.726;23.252;2023-05-25T09:27:36;95393.22;;;17.65;nan
9261;BME280;4667;42.726;23.252;2023-05-25T09:30:04;95403.19;;;17.75;nan
9261;BME280;4667;42.726;23.252;2023-05-25T09:32:31;95404.47;;;17.87;nan
9261;BME280;4667;42.726;23.252;2023-05-25T09:35:07;95408.38;;;18.02;nan
9261;BME280;4667;42.726;23.252;2023-05-25T09:37:34;95402.13;;;18.02;nan
9261;BME280;4667;42.726;23.252;2023-05-25T09:40:03;95400.50;;;18.04;nan
9261;BME280;4667;42.726;23.252;2023-05-25T09:42:30;95399.84;;;18.29;nan
9261;BME280;4667;42.726;23.252;2023-05-25T09:44:58;95399.84;;;18.29;nan
9261;BME280;4667;42.726;23.252;2023-05-25T09:47:25;95392.72;;;18.31;nan
9261;BME280;4667;42.726;23.252;2023-05-25T09:49:52;95392.44;;;18.42;nan
9261;BME280;4667;42.726;23.252;2023-05-25T09:52:20;95397.50;;;18.44;nan
9261;BME280;4667;42.726;23.252;2023-05-25T09:54:48;95391.53;;;18.61;nan
9261;BME280;4667;42.726;23.252;2023-05-25T09:57:18;95386.16;;;18.58;nan
9261;BME280;4667;42.726;23.252;2023-05-25T09:59:46;95382.56;;;18.73;nan
9261;BME280;4667;42.726;23.252;2023-05-25T10:02:13;95380.63;;;18.87;nan
9261;BME280;4667;42.726;23.252;2023-05-25T10:04:40;95388.44;;;19.01;nan
9261;BME280;4667;42.726;23.252;2023-05-25T10:07:07;95378.03;;;19.34;nan
9261;BME280;4667;42.726;23.252;2023-05-25T10:09:39;95376.41;;;19.49;nan
9261;BME280;4667;42.726;23.252;2023-05-25T10:12:07;95374.41;;;19.75;nan
9261;BME280;4667;42.726;23.252;2023-05-25T10:14:36;95360.44;;;19.69;nan
9261;BME280;4667;42.726;23.252;2023-05-25T10:17:04;95362.53;;;19.78;nan
9261;BME280;4667;42.726;23.252;2023-05-25T10:19:35;95363.66;;;19.55;nan
9261;BME280;4667;42.726;23.252;2023-05-25T10:22:14;95356.59;;;19.67;nan
9261;BME280;4667;42.726;23.252;2023-05-25T10:24:50;95345.31;;;19.99;nan
9261;BME280;4667;42.726;23.252;2023-05-25T10:27:22;95342.84;;;20.14;nan
9261;BME280;4667;42.726;23.252;2023-05-25T10:29:50;95335.94;;;20.31;nan
9261;BME280;4667;42.726;23.252;2023-05-25T10:32:18;95331.81;;;20.48;nan
9261;BME280;4667;42.726;23.252;2023-05-25T10:34:45;95328.03;;;20.55;nan
9261;BME280;4667;42.726;23.252;2023-05-25T10:37:13;95330.81;;;20.55;nan
9261;BME280;4667;42.726;23.252;2023-05-25T10:39:40;95326.03;;;20.77;nan
9261;BME280;4667;42.726;23.252;2023-05-25T10:42:09;95325.13;;;20.80;nan
9261;BME280;4667;42.726;23.252;2023-05-25T10:44:37;95325.13;;;20.80;nan
9261;BME280;4667;42.726;23.252;2023-05-25T10:47:05;95315.91;;;20.74;nan
9261;BME280;4667;42.726;23.252;2023-05-25T10:49:34;95303.84;;;21.02;nan
9261;BME280;4667;42.726;23.252;2023-05-25T10:52:17;95302.38;;;20.89;nan
9261;BME280;4667;42.726;23.252;2023-05-25T10:54:45;95301.00;;;20.62;nan
9261;BME280;4667;42.726;23.252;2023-05-25T10:57:18;95299.19;;;20.90;nan
9261;BME280;4667;42.726;23.252;2023-05-25T10:59:50;95296.44;;;20.90;nan
9261;BME280;4667;42.726;23.252;2023-05-25T11:02:26;95288.88;;;20.82;nan
9261;BME280;4667;42.726;23.252;2023-05-25T11:07:54;95282.06;;;20.95;nan
9261;BME280;4667;42.726;23.252;2023-05-25T11:10:42;95290.94;;;20.90;nan
9261;BME280;4667;42.726;23.252;2023-05-25T11:13:32;95281.47;;;21.00;nan
9261;BME280;4667;42.726;23.252;2023-05-25T11:16:19;95289.66;;;20.82;nan
9261;BME280;4667;42.726;23.252;2023-05-25T11:18:51;95279.44;;;20.92;nan
9261;BME280;4667;42.726;23.252;2023-05-25T11:21:40;95294.66;;;20.74;nan
9261;BME280;4667;42.726;23.252;2023-05-25T11:24:13;95296.78;;;20.70;nan
9261;BME280;4667;42.726;23.252;2023-05-25T11:26:54;95295.78;;;20.86;nan
9261;BME280;4667;42.726;23.252;2023-05-25T11:29:22;95292.41;;;20.82;nan
9261;BME280;4667;42.726;23.252;2023-05-25T11:31:52;95295.44;;;20.75;nan
9261;BME280;4667;42.726;23.252;2023-05-25T11:34:21;95302.47;;;20.76;nan
9261;BME280;4667;42.726;23.252;2023-05-25T11:36:52;95295.09;;;21.04;nan
9261;BME280;4667;42.726;23.252;2023-05-25T11:39:19;95292.50;;;21.00;nan
9261;BME280;4667;42.726;23.252;2023-05-25T11:41:48;95291.13;;;21.05;nan
9261;BME280;4667;42.726;23.252;2023-05-25T11:44:26;95288.34;;;21.27;nan
9261;BME280;4667;42.726;23.252;2023-05-25T11:46:54;95285.66;;;21.54;nan
9261;BME280;4667;42.726;23.252;2023-05-25T11:49:22;95281.47;;;21.31;nan
9261;BME280;4667;42.726;23.252;2023-05-25T11:51:49;95281.69;;;21.82;nan
9261;BME280;4667;42.726;23.252;2023-05-25T11:54:23;95287.09;;;22.22;nan
9261;BME280;4667;42.726;23.252;2023-05-25T11:56:50;95276.25;;;22.88;nan
9261;BME280;4667;42.726;23.252;2023-05-25T11:59:17;95286.63;;;23.11;nan
9261;BME280;4667;42.726;23.252;2023-05-25T12:01:54;95278.47;;;23.74;nan
9261;BME280;4667;42.726;23.252;2023-05-25T12:04:21;95276.84;;;24.06;nan
9261;BME280;4667;42.726;23.252;2023-05-25T12:06:48;95267.59;;;24.76;nan
9261;BME280;4667;42.726;23.252;2023-05-25T12:09:19;95266.19;;;25.66;nan
9261;BME280;4667;42.726;23.252;2023-05-25T12:11:47;95266.13;;;26.00;nan
9261;BME280;4667;42.726;23.252;2023-05-25T12:14:14;95266.69;;;26.76;nan
9261;BME280;4667;42.726;23.252;2023-05-25T12:16:41;95271.75;;;27.04;nan
9261;BME280;4667;42.726;23.252;2023-05-25T12:19:10;95268.09;;;27.23;nan
9261;BME280;4667;42.726;23.252;2023-05-25T12:21:38;95267.97;;;27.07;nan
9261;BME280;4667;42.726;23.252;2023-05-25T12:24:06;95253.69;;;26.36;nan
9261;BME280;4667;42.726;23.252;2023-05-25T12:26:33;95248.81;;;26.83;nan
9261;BME280;4667;42.726;23.252;2023-05-25T12:29:00;95246.47;;;27.39;nan
9261;BME280;4667;42.726;23.252;2023-05-25T12:31:28;95246.03;;;27.99;nan
9261;BME280;4667;42.726;23.252;2023-05-25T12:34:06;95232.03;;;28.59;nan
9261;BME280;4667;42.726;23.252;2023-05-25T12:36:44;95234.31;;;29.16;nan
9261;BME280;4667;42.726;23.252;2023-05-25T12:39:13;95227.75;;;29.36;nan
9261;BME280;4667;42.726;23.252;2023-05-25T12:41:45;95227.97;;;29.38;nan
9261;BME280;4667;42.726;23.252;2023-05-25T12:44:23;95219.47;;;29.93;nan
9261;BME280;4667;42.726;23.252;2023-05-25T12:46:52;95221.03;;;29.78;nan
9261;BME280;4667;42.726;23.252;2023-05-25T12:49:27;95213.09;;;29.93;nan
9261;BME280;4667;42.726;23.252;2023-05-25T12:51:56;95214.34;;;29.97;nan
9261;BME280;4667;42.726;23.252;2023-05-25T12:54:38;95191.94;;;30.14;nan
9261;BME280;4667;42.726;23.252;2023-05-25T12:57:07;95189.50;;;30.76;nan
9261;BME280;4667;42.726;23.252;2023-05-25T12:59:35;95189.13;;;30.61;nan
9261;BME280;4667;42.726;23.252;2023-05-25T13:02:02;95196.09;;;30.78;nan
9261;BME280;4667;42.726;23.252;2023-05-25T13:04:30;95184.38;;;30.50;nan
9261;BME280;4667;42.726;23.252;2023-05-25T13:06:58;95176.31;;;30.71;nan
9261;BME280;4667;42.726;23.252;2023-05-25T13:09:25;95179.16;;;30.65;nan
9261;BME280;4667;42.726;23.252;2023-05-25T13:11:53;95171.22;;;30.69;nan
9261;BME280;4667;42.726;23.252;2023-05-25T13:14:20;95169.59;;;30.85;nan
9261;BME280;4667;42.726;23.252;2023-05-25T13:16:48;95164.47;;;30.89;nan
9261;BME280;4667;42.726;23.252;2023-05-25T13:19:15;95170.50;;;30.63;nan
9261;BME280;4667;42.726;23.252;2023-05-25T13:21:42;95168.69;;;31.01;nan
9261;BME280;4667;42.726;23.252;2023-05-25T13:24:10;95172.28;;;30.96;nan
9261;BME280;4667;42.726;23.252;2023-05-25T13:26:37;95163.25;;;31.14;nan
9261;BME280;4667;42.726;23.252;2023-05-25T13:29:04;95160.28;;;30.71;nan
9261;BME280;4667;42.726;23.252;2023-05-25T13:31:30;95157.84;;;30.92;nan
9261;BME280;4667;42.726;23.252;2023-05-25T13:33:57;95154.97;;;30.98;nan
9261;BME280;4667;42.726;23.252;2023-05-25T13:36:24;95154.00;;;31.44;nan
9261;BME280;4667;42.726;23.252;2023-05-25T13:38:51;95162.13;;;31.23;nan
9261;BME280;4667;42.726;23.252;2023-05-25T13:41:19;95153.56;;;31.40;nan